EPWR

Copernicus Wrocław Airport

Wrocław, Poland
METAR EPWR 180900Z VRB02KT 9000 NSC 14/09 Q1020
Observed Flight Rules
Oct-18 @ 09:00 UTC (30 minutes ago) Visual Flight Rules
Wind Visibility Clouds
Variable at 2 knots 8,996 meters
  • Clear skies
Temperatures Readings
Current 14°C / 57°F
Dewpoint 9°C / 48°F
Humidity 72%
Altimeter 30.12" Hg
Pressure 1020 hPa
Elevation 121
METAR EPWR 180900Z VRB02KT 9000 NSC 14/09 Q1020
Observed Flight Rules
Oct-18 @ 09:00 UTC
(30 minutes ago)
VFR
Wind Visibility
Variable at 2 knots 8,996 meters
Clouds
  • Clear skies
Temperature Dewpoint
14°C / 57°F 9°C / 48°F
Humidity Altimeter Pressure
72% 30.12" Hg 1020 hPa